Map

Track Data

SID SEASON NUMBER BASIN SUBBASIN NAME ISO_TIME NATURE LAT LON WMO_WIND WMO_PRES WMO_AGENCY TRACK_TYPE DIST2LAND LANDFALL IFLAG USA_AGENCY USA_ATCF_ID USA_LAT USA_LON USA_RECORD USA_STATUS USA_WIND USA_PRES USA_SSHS USA_R34_NE USA_R34_SE USA_R34_SW USA_R34_NW USA_R50_NE USA_R50_SE USA_R50_SW USA_R50_NW USA_R64_NE USA_R64_SE USA_R64_SW USA_R64_NW USA_POCI USA_ROCI USA_RMW USA_EYE TOKYO_LAT TOKYO_LON TOKYO_GRADE TOKYO_WIND TOKYO_PRES TOKYO_R50_DIR TOKYO_R50_LONG TOKYO_R50_SHORT TOKYO_R30_DIR TOKYO_R30_LONG TOKYO_R30_SHORT TOKYO_LAND CMA_LAT CMA_LON CMA_CAT CMA_WIND CMA_PRES HKO_LAT HKO_LON HKO_CAT HKO_WIND HKO_PRES NEWDELHI_LAT NEWDELHI_LON NEWDELHI_GRADE NEWDELHI_WIND NEWDELHI_PRES NEWDELHI_CI NEWDELHI_DP NEWDELHI_POCI REUNION_LAT REUNION_LON REUNION_TYPE REUNION_WIND REUNION_PRES REUNION_TNUM REUNION_CI REUNION_RMW REUNION_R34_NE REUNION_R34_SE REUNION_R34_SW REUNION_R34_NW REUNION_R50_NE REUNION_R50_SE REUNION_R50_SW REUNION_R50_NW REUNION_R64_NE REUNION_R64_SE REUNION_R64_SW REUNION_R64_NW BOM_LAT BOM_LON BOM_TYPE BOM_WIND BOM_PRES BOM_TNUM BOM_CI BOM_RMW BOM_R34_NE BOM_R34_SE BOM_R34_SW BOM_R34_NW BOM_R50_NE BOM_R50_SE BOM_R50_SW BOM_R50_NW BOM_R64_NE BOM_R64_SE BOM_R64_SW BOM_R64_NW BOM_ROCI BOM_POCI BOM_EYE BOM_POS_METHOD BOM_PRES_METHOD NADI_LAT NADI_LON NADI_CAT NADI_WIND NADI_PRES WELLINGTON_LAT WELLINGTON_LON WELLINGTON_WIND WELLINGTON_PRES DS824_LAT DS824_LON DS824_STAGE DS824_WIND DS824_PRES TD9636_LAT TD9636_LON TD9636_STAGE TD9636_WIND TD9636_PRES TD9635_LAT TD9635_LON TD9635_WIND TD9635_PRES TD9635_ROCI NEUMANN_LAT NEUMANN_LON NEUMANN_CLASS NEUMANN_WIND NEUMANN_PRES MLC_LAT MLC_LON MLC_CLASS MLC_WIND MLC_PRES USA_GUST BOM_GUST BOM_GUST_PER REUNION_GUST REUNION_GUST_PER USA_SEAHGT USA_SEARAD_NE USA_SEARAD_SE USA_SEARAD_SW USA_SEARAD_NW STORM_SPEED STORM_DIR
1951203N08136 1951 43 WP MM NOT_NAMED 1951-07-22 00:00:00 TS 8.10000 136.000 main 987 986 __O___________ -1 8.10000 136.000 1 23 1004 5 284
1951203N08136 1951 43 WP MM NOT_NAMED 1951-07-22 03:00:00 TS 8.16003 135.750 main 997 982 __P___________ -1 8.16003 135.750 1 23 1004 5 281
1951203N08136 1951 43 WP MM NOT_NAMED 1951-07-22 06:00:00 TS 8.20000 135.500 main 982 960 __O___________ -1 8.20000 135.500 1 23 1004 5 275
1951203N08136 1951 43 WP MM NOT_NAMED 1951-07-22 09:00:00 TS 8.20748 135.250 main 960 927 __P___________ -1 8.20748 135.250 1 23 1004 5 270
1951203N08136 1951 43 WP MM NOT_NAMED 1951-07-22 12:00:00 TS 8.20000 135.000 main 927 905 __O___________ -1 8.20000 135.000 1 23 1004 5 269
1951203N08136 1951 43 WP MM NOT_NAMED 1951-07-22 15:00:00 TS 8.19997 134.758 main 905 872 __P___________ -1 8.19997 134.758 1 23 1004 5 270
1951203N08136 1951 43 WP MM NOT_NAMED 1951-07-22 18:00:00 TS 8.20000 134.500 main 872 839 __O___________ -1 8.20000 134.500 1 23 1004 6 270
1951203N08136 1951 43 WP MM NOT_NAMED 1951-07-22 21:00:00 TS 8.20002 134.193 main 839 806 __P___________ -1 8.20002 134.193 1 26 1003 6 270
1951203N08136 1951 43 WP MM NOT_NAMED 1951-07-23 00:00:00 TS 8.20000 133.900 main 806 784 __O___________ -1 8.20000 133.900 1 29 1002 5 271
1951203N08136 1951 43 WP MM NOT_NAMED 1951-07-23 03:00:00 TS 8.20745 133.693 main 784 762 __P___________ -1 8.20745 133.693 1 29 1002 4 270
1951203N08136 1951 43 WP MM NOT_NAMED 1951-07-23 06:00:00 TS 8.20000 133.500 main 762 740 __O___________ -1 8.20000 133.500 1 29 1002 4 262
1951203N08136 1951 43 WP MM NOT_NAMED 1951-07-23 09:00:00 TS 8.14998 133.265 main 739 706 __P___________ -1 8.14998 133.265 1 29 1002 5 259
1951203N08136 1951 43 WP MM NOT_NAMED 1951-07-23 12:00:00 TS 8.10000 133.000 main 706 673 __O___________ -1 8.10000 133.000 1 29 1002 5 265
1951203N08136 1951 43 WP MM NOT_NAMED 1951-07-23 15:00:00 TS 8.09994 132.730 main 673 640 __P___________ -1 8.09994 132.730 1 29 1002 6 270
1951203N08136 1951 43 WP MM NOT_NAMED 1951-07-23 18:00:00 TS 8.10000 132.400 main 640 596 __O___________ -1 8.10000 132.400 1 29 1002 7 265
1951203N08136 1951 43 WP MM NOT_NAMED 1951-07-23 21:00:00 TS 8.04229 132.025 main 596 541 __P___________ -1 8.04229 132.025 1 26 1003 9 264
1951203N08136 1951 43 WP MM NOT_NAMED 1951-07-24 00:00:00 TS 8.00000 131.500 main 541 464 __O___________ -1 8.00000 131.500 1 23 1004 12 269
1951203N08136 1951 43 WP MM NOT_NAMED 1951-07-24 03:00:00 TS 8.02736 130.790 main 464 377 __P___________ -1 8.02736 130.790 1 23 1005 16 274
1951203N08136 1951 43 WP MM NOT_NAMED 1951-07-24 06:00:00 TS 8.10000 129.900 main 366 259 __O___________ -1 8.10000 129.900 1 23 1006 19 274
1951203N08136 1951 43 WP MM NOT_NAMED 1951-07-24 09:00:00 TS 8.16250 128.887 main 259 158 __P___________ -1 8.16250 128.887 1 1006 21 275
1951203N08136 1951 43 WP MM NOT_NAMED 1951-07-24 12:00:00 TS 8.30000 127.800 main 148 49 __O___________ -1 8.30000 127.800 0 1006 22 281
1951203N08136 1951 43 WP MM NOT_NAMED 1951-07-24 15:00:00 TS 8.58509 126.698 main 47 0 __P___________ -1 8.58509 126.698 0 1006 22 286
1951203N08136 1951 43 WP MM NOT_NAMED 1951-07-24 18:00:00 TS 8.90000 125.700 main 0 0 __O___________ -1 8.90000 125.700 0 1006 18 289
1951203N08136 1951 43 WP MM NOT_NAMED 1951-07-24 21:00:00 TS 9.18200 124.948 main 33 33 __P___________ -1 9.18200 124.948 0 1006 14 286
1951203N08136 1951 43 WP MM NOT_NAMED 1951-07-25 00:00:00 TS 9.30000 124.300 main 33 33 __O___________ -1 9.30000 124.300 0 1007 13 268
1951203N08136 1951 43 WP MM NOT_NAMED 1951-07-25 03:00:00 TS 9.13244 123.585 main 39 11 __P___________ -1 9.13244 123.585 0 1007 15 250
1951203N08136 1951 43 WP MM NOT_NAMED 1951-07-25 06:00:00 TS 8.80000 122.900 main 24 24 __O___________ -1 8.80000 122.900 0 1007 15 243
1951203N08136 1951 43 WP MM NOT_NAMED 1951-07-25 09:00:00 TS 8.46487 122.278 main 49 35 __P___________ -1 8.46487 122.278 0 1007 14 239
1951203N08136 1951 43 WP MM NOT_NAMED 1951-07-25 12:00:00 TS 8.10000 121.700 main 56 56 __O___________ -1 8.10000 121.700 0 1007 13 236
1951203N08136 1951 43 WP MM NOT_NAMED 1951-07-25 15:00:00 TS 7.72734 121.158 main 99 99 __P___________ -1 7.72734 121.158 0 1007 13 237
1951203N08136 1951 43 WP MM NOT_NAMED 1951-07-25 18:00:00 TS 7.40000 120.600 main 147 147 __O___________ -1 7.40000 120.600 0 1007 13 245
1951203N08136 1951 43 WP MM NOT_NAMED 1951-07-25 21:00:00 TS 7.17006 119.943 main 212 164 __P___________ -1 7.17006 119.943 0 1007 14 253
1951203N08136 1951 43 WP MM NOT_NAMED 1951-07-26 00:00:00 TS 7.00000 119.300 main 164 133 __O___________ -1 7.00000 119.300 0 1007 12 255
1951203N08136 1951 43 WP MM NOT_NAMED 1951-07-26 03:00:00 TS 6.84750 118.765 main 125 74 __P___________ -1 6.84750 118.765 0 1007 10 253
1951203N08136 1951 43 WP MM NOT_NAMED 1951-07-26 06:00:00 TS 6.70000 118.300 main 74 __O___________ -1 6.70000 118.300 0 1007 10 252

Digital Typhoon Data and Search

About IBTrACS Database

This database is a web-friendly format of International Best Track Archive for Climate Stewardship (IBTrACS), a global best track data archive curated by NOAA dating back to 1842.

Updated: 2021-11-26